Aviation Digital Data Service (ADDS)

Output produced by METARs form (2041 UTC 18 October 2018)
found at http://aviationweather.gov/metar/data/
 
KRDG 181954Z 30013G17KT 10SM FEW050 12/M02 A3035 RMK AO2 SLP285 T01171017
KRDG 181725Z 1818/1918 32012KT P6SM FEW050 
     FM182200 29006KT P6SM SKC 
     FM190100 VRB03KT P6SM SKC 
     FM191500 24008KT P6SM SCT250
       
KABE 181951Z 28011G19KT 10SM CLR 11/M03 A3034 RMK AO2 SLP276 T01111028
KABE 181725Z 1818/1918 31011KT P6SM FEW050 
     FM182200 28007KT P6SM SKC 
     FM190100 VRB02KT P6SM SKC 
     FM191500 24008KT P6SM SKC
       
KPNE 181954Z 32010KT 10SM CLR 12/M02 A3036 RMK AO2 SLP281 T01221022
KPNE 181725Z 1818/1918 30012KT P6SM SCT050 
     FM182100 30008KT P6SM FEW050 
     FM190100 VRB03KT P6SM SKC 
     FM191500 25009KT P6SM SKC